createdAt,value
2022-11-05T00:00:37.784Z,8.07
2022-11-05T00:03:23.316Z,8.50
2022-11-05T00:06:10.061Z,7.30
2022-11-05T00:08:55.275Z,7.60
2022-11-05T00:11:41.842Z,8.60
2022-11-05T00:14:26.610Z,7.87
2022-11-05T00:16:53.141Z,7.33
2022-11-05T00:19:19.702Z,7.43
2022-11-05T00:22:04.656Z,8.33
2022-11-05T00:24:49.407Z,7.70
2022-11-05T00:27:15.932Z,7.40
2022-11-05T00:29:42.404Z,7.40
2022-11-05T00:32:08.936Z,7.63
2022-11-05T00:34:35.583Z,8.00
2022-11-05T00:37:02.067Z,7.83
2022-11-05T00:39:28.727Z,7.27
2022-11-05T00:42:13.672Z,7.17
2022-11-05T00:44:58.837Z,8.13
2022-11-05T00:47:43.727Z,7.60
2022-11-05T00:50:10.939Z,8.60
2022-11-05T00:52:56.146Z,8.10
2022-11-05T00:55:29.267Z,8.87
2022-11-05T00:57:56.826Z,8.50
2022-11-05T01:00:25.058Z,7.20
2022-11-05T01:02:51.751Z,8.70
2022-11-05T01:05:18.427Z,8.23
2022-11-05T01:07:44.994Z,8.23
2022-11-05T01:10:11.486Z,7.73
2022-11-05T01:12:37.964Z,7.27
2022-11-05T01:15:04.926Z,7.57
2022-11-05T01:17:31.387Z,7.67
2022-11-05T01:19:57.829Z,7.57
2022-11-05T01:22:24.382Z,8.20
2022-11-05T01:24:50.877Z,7.67
2022-11-05T01:27:17.467Z,7.67
2022-11-05T01:29:43.961Z,8.07
2022-11-05T01:32:10.527Z,6.87
2022-11-05T01:34:37.126Z,7.07
2022-11-05T01:37:03.690Z,6.80
2022-11-05T01:39:30.389Z,6.97
2022-11-05T01:41:58.710Z,7.37
2022-11-05T01:44:50.070Z,7.40
2022-11-05T01:47:36.802Z,7.20
2022-11-05T01:50:40.570Z,6.53
2022-11-05T01:53:22.278Z,8.07
2022-11-05T01:56:03.720Z,7.40
2022-11-05T01:58:39.147Z,7.20
2022-11-05T02:01:05.797Z,7.70
2022-11-05T02:03:32.392Z,8.23
2022-11-05T02:06:01.162Z,7.60
2022-11-05T02:08:46.356Z,8.03
2022-11-05T02:11:14.495Z,8.07
2022-11-05T02:13:41.010Z,7.63
2022-11-05T02:16:30.872Z,8.37
2022-11-05T02:19:06.682Z,7.80
2022-11-05T02:22:11.705Z,8.13
2022-11-05T02:24:49.989Z,7.80
2022-11-05T02:27:28.207Z,8.20
2022-11-05T02:30:09.761Z,8.30
2022-11-05T02:32:36.309Z,7.70
2022-11-05T02:35:21.506Z,8.43
2022-11-05T02:37:58.767Z,7.43
2022-11-05T02:40:31.011Z,7.87
2022-11-05T02:43:21.416Z,7.30
2022-11-05T02:45:50.845Z,7.70
2022-11-05T02:48:30.663Z,7.80
2022-11-05T02:51:23.531Z,8.70
2022-11-05T02:53:56.079Z,8.20
2022-11-05T02:56:25.910Z,7.87
2022-11-05T02:58:52.405Z,8.07
2022-11-05T03:01:19.122Z,8.13
2022-11-05T03:03:47.818Z,7.80
2022-11-05T03:06:17.284Z,8.50
2022-11-05T03:09:00.608Z,7.77
2022-11-05T03:11:29.203Z,7.33
2022-11-05T03:13:55.653Z,8.33
2022-11-05T03:16:30.210Z,8.60
2022-11-05T03:19:13.069Z,8.93
2022-11-05T03:21:53.643Z,8.07
2022-11-05T03:24:47.428Z,8.43
2022-11-05T03:27:15.746Z,7.67
2022-11-05T03:29:53.363Z,8.83
2022-11-05T03:32:20.860Z,8.47
2022-11-05T03:34:50.498Z,9.03
2022-11-05T03:37:20.600Z,8.43
2022-11-05T03:39:50.539Z,7.83
2022-11-05T03:42:18.750Z,7.20
2022-11-05T03:44:48.534Z,7.50
2022-11-05T03:47:18.619Z,7.00
2022-11-05T03:50:20.664Z,7.20
2022-11-05T03:52:56.435Z,8.03
2022-11-05T03:55:25.418Z,8.57
2022-11-05T03:57:53.975Z,9.03
2022-11-05T04:00:21.712Z,8.87
2022-11-05T04:02:48.404Z,8.03
2022-11-05T04:05:15.235Z,7.70
2022-11-05T04:08:01.758Z,8.87
2022-11-05T04:10:46.595Z,8.60
2022-11-05T04:13:24.889Z,7.40
2022-11-05T04:16:11.864Z,8.03
2022-11-05T04:18:38.567Z,8.30
2022-11-05T04:21:24.803Z,8.57
2022-11-05T04:24:09.710Z,7.90
2022-11-05T04:26:37.039Z,7.97
2022-11-05T04:29:22.349Z,8.73
2022-11-05T04:31:48.937Z,8.30
2022-11-05T04:34:16.278Z,8.23
2022-11-05T04:36:43.096Z,9.43
2022-11-05T04:39:09.633Z,7.90
2022-11-05T04:41:36.111Z,8.83
2022-11-05T04:44:02.752Z,9.07
2022-11-05T04:46:29.215Z,8.77
2022-11-05T04:48:55.704Z,9.20
2022-11-05T04:51:22.326Z,9.80
2022-11-05T04:53:48.885Z,9.00
2022-11-05T04:56:19.165Z,10.03
2022-11-05T04:58:45.919Z,10.47
2022-11-05T05:01:21.172Z,9.13
2022-11-05T05:03:49.342Z,9.63
2022-11-05T05:06:16.535Z,10.17
2022-11-05T05:08:43.352Z,9.87
2022-11-05T05:11:12.449Z,11.13
2022-11-05T05:13:39.086Z,10.47
2022-11-05T05:16:07.735Z,10.87
2022-11-05T05:18:34.469Z,11.40
2022-11-05T05:21:20.391Z,10.80
2022-11-05T05:23:48.299Z,11.80
2022-11-05T05:26:16.061Z,12.40
2022-11-05T05:28:42.613Z,13.47
2022-11-05T05:31:09.324Z,13.97
2022-11-05T05:33:35.964Z,13.37
2022-11-05T05:36:06.983Z,13.37
2022-11-05T05:38:34.901Z,14.80
2022-11-05T05:41:01.352Z,13.70
2022-11-05T05:43:31.519Z,14.80
2022-11-05T05:46:02.302Z,15.63
2022-11-05T05:48:28.914Z,14.87
2022-11-05T05:50:55.371Z,14.83
2022-11-05T05:53:21.866Z,14.47
2022-11-05T05:55:48.378Z,13.87
2022-11-05T05:58:14.979Z,14.90
2022-11-05T06:00:42.087Z,14.90
2022-11-05T06:03:08.827Z,15.17
2022-11-05T06:05:35.439Z,14.73
2022-11-05T06:08:02.016Z,14.47
2022-11-05T06:10:28.538Z,14.93
2022-11-05T06:12:54.976Z,14.13
2022-11-05T06:15:21.507Z,14.73
2022-11-05T06:17:47.989Z,14.37
2022-11-05T06:20:14.636Z,14.13
2022-11-05T06:22:41.143Z,14.83
2022-11-05T06:25:08.517Z,15.33
2022-11-05T06:27:36.849Z,14.87
2022-11-05T06:30:04.903Z,14.63
2022-11-05T06:32:31.668Z,14.27
2022-11-05T06:34:58.122Z,14.00
2022-11-05T06:37:25.184Z,13.57
2022-11-05T06:39:51.805Z,14.63
2022-11-05T06:42:19.204Z,13.83
2022-11-05T06:44:46.198Z,14.07
2022-11-05T06:47:12.685Z,12.97
2022-11-05T06:49:39.387Z,13.50
2022-11-05T06:52:05.854Z,14.10
2022-11-05T06:54:32.305Z,14.30
2022-11-05T06:56:59.109Z,13.47
2022-11-05T06:59:25.582Z,13.33
2022-11-05T07:01:52.172Z,13.93
2022-11-05T07:04:18.677Z,13.67
2022-11-05T07:06:45.149Z,13.30
2022-11-05T07:09:11.637Z,13.67
2022-11-05T07:11:38.123Z,12.60
2022-11-05T07:14:04.627Z,12.80
2022-11-05T07:16:31.184Z,13.57
2022-11-05T07:18:57.700Z,14.03
2022-11-05T07:21:24.169Z,13.60
2022-11-05T07:23:50.780Z,13.60
2022-11-05T07:26:17.250Z,13.97
2022-11-05T07:28:43.830Z,14.47
2022-11-05T07:31:10.286Z,14.00
2022-11-05T07:33:36.967Z,15.10
2022-11-05T07:36:03.772Z,14.50
2022-11-05T07:38:30.282Z,15.03
2022-11-05T07:40:59.376Z,15.27
2022-11-05T07:43:25.951Z,15.63
2022-11-05T07:45:52.420Z,15.50
2022-11-05T07:48:18.980Z,17.03
2022-11-05T07:50:45.555Z,16.30
2022-11-05T07:53:14.224Z,16.23
2022-11-05T07:55:41.831Z,16.63
2022-11-05T07:58:08.960Z,16.87
2022-11-05T08:00:35.588Z,16.90
2022-11-05T08:03:08.107Z,17.53
2022-11-05T08:05:37.739Z,17.37
2022-11-05T08:08:05.083Z,17.27
2022-11-05T08:10:31.726Z,17.87
2022-11-05T08:12:58.314Z,16.40
2022-11-05T08:15:24.883Z,17.00
2022-11-05T08:17:58.836Z,17.97
2022-11-05T08:20:26.364Z,18.00
2022-11-05T08:22:53.759Z,16.93
2022-11-05T08:25:20.414Z,14.83
2022-11-05T08:27:46.907Z,16.53
2022-11-05T08:30:13.428Z,16.37
2022-11-05T08:32:40.035Z,15.97
2022-11-05T08:35:06.779Z,16.67
2022-11-05T08:37:33.441Z,16.20
2022-11-05T08:40:00.047Z,15.53
2022-11-05T08:42:26.580Z,15.97
2022-11-05T08:44:53.104Z,14.93
2022-11-05T08:47:19.605Z,15.53
2022-11-05T08:49:46.165Z,14.50
2022-11-05T08:52:12.728Z,14.87
2022-11-05T08:54:39.279Z,14.30
2022-11-05T08:57:05.755Z,14.90
2022-11-05T08:59:32.288Z,14.27
2022-11-05T09:01:58.921Z,14.07
2022-11-05T09:04:25.455Z,14.00
2022-11-05T09:06:52.044Z,13.03
2022-11-05T09:09:18.582Z,12.87
2022-11-05T09:12:10.661Z,13.20
2022-11-05T09:14:32.041Z,12.73
2022-11-05T09:16:58.619Z,14.13
2022-11-05T09:19:25.139Z,12.07
2022-11-05T09:21:51.714Z,12.17
2022-11-05T09:24:18.170Z,11.67
2022-11-05T09:26:44.750Z,11.27
2022-11-05T09:29:14.359Z,12.23
2022-11-05T09:31:41.534Z,11.47
2022-11-05T09:34:08.027Z,12.00
2022-11-05T09:36:34.546Z,10.37
2022-11-05T09:39:01.206Z,10.00
2022-11-05T09:41:31.269Z,10.03
2022-11-05T09:44:03.948Z,10.27
2022-11-05T09:46:45.899Z,10.43
2022-11-05T09:49:25.135Z,9.40
2022-11-05T09:51:57.081Z,9.20
2022-11-05T09:54:27.690Z,9.07
2022-11-05T09:56:54.705Z,8.63
2022-11-05T09:59:41.743Z,8.47
2022-11-05T10:02:19.664Z,8.80
2022-11-05T10:04:49.187Z,7.83
2022-11-05T10:07:22.323Z,8.00
2022-11-05T10:09:52.439Z,7.90
2022-11-05T10:12:40.868Z,7.90
2022-11-05T10:15:07.643Z,7.40
2022-11-05T10:17:39.179Z,7.47
2022-11-05T10:20:15.578Z,7.73
2022-11-05T10:22:46.625Z,7.20
2022-11-05T10:25:20.631Z,7.07
2022-11-05T10:27:52.334Z,6.03
2022-11-05T10:30:19.006Z,6.00
2022-11-05T10:32:46.399Z,6.50
2022-11-05T10:35:18.514Z,6.03
2022-11-05T10:37:46.722Z,6.13
2022-11-05T10:40:35.772Z,5.40
2022-11-05T10:43:11.349Z,5.47
2022-11-05T10:45:46.158Z,5.43
2022-11-05T10:48:39.415Z,5.20
2022-11-05T10:51:10.104Z,4.70
2022-11-05T10:53:38.652Z,5.30
2022-11-05T10:56:32.824Z,5.67
2022-11-05T10:59:00.783Z,4.87
2022-11-05T11:01:28.815Z,4.23
2022-11-05T11:04:08.170Z,5.03
2022-11-05T11:06:39.323Z,3.90
2022-11-05T11:09:09.389Z,3.77
2022-11-05T11:11:41.461Z,4.37
2022-11-05T11:14:14.243Z,3.77
2022-11-05T11:16:43.328Z,3.70
2022-11-05T11:19:33.041Z,3.73
2022-11-05T11:22:05.617Z,3.73
2022-11-05T11:24:39.266Z,3.87
2022-11-05T11:27:11.274Z,3.43
2022-11-05T11:29:46.456Z,3.77
2022-11-05T11:32:17.946Z,3.90
2022-11-05T11:34:46.894Z,3.27
2022-11-05T11:37:42.200Z,4.23
2022-11-05T11:40:19.775Z,5.53
2022-11-05T11:42:52.260Z,4.30
2022-11-05T11:45:25.008Z,4.17
2022-11-05T11:47:51.783Z,4.10
2022-11-05T11:50:42.453Z,4.00
2022-11-05T11:53:18.355Z,4.10
2022-11-05T11:55:58.664Z,4.13
2022-11-05T11:58:49.184Z,3.90
2022-11-05T12:01:43.817Z,3.90
2022-11-05T12:04:32.457Z,4.77
2022-11-05T12:07:09.425Z,4.50
2022-11-05T12:09:56.101Z,3.77
2022-11-05T12:12:33.129Z,4.20
2022-11-05T12:15:19.907Z,4.33
2022-11-05T12:18:00.489Z,3.93
2022-11-05T12:20:36.188Z,3.90
2022-11-05T12:23:17.847Z,3.57
2022-11-05T12:26:06.061Z,3.90
2022-11-05T12:29:04.631Z,3.57
2022-11-05T12:31:47.777Z,3.70
2022-11-05T12:34:41.030Z,3.90
2022-11-05T12:37:10.600Z,4.30
2022-11-05T12:39:43.053Z,3.73
2022-11-05T12:42:47.225Z,3.97
2022-11-05T12:45:44.869Z,3.80
2022-11-05T12:48:26.525Z,3.87
2022-11-05T12:51:08.393Z,10.63
2022-11-05T12:53:41.481Z,4.23
2022-11-05T12:56:30.352Z,3.43
2022-11-05T12:59:34.874Z,4.00
2022-11-05T13:02:11.122Z,4.43
2022-11-05T13:04:45.410Z,3.83
2022-11-05T13:07:15.209Z,4.00
2022-11-05T13:09:46.742Z,4.70
2022-11-05T13:12:15.627Z,3.90
2022-11-05T13:14:46.335Z,4.90
2022-11-05T13:17:20.101Z,4.33
2022-11-05T13:20:14.471Z,4.03
2022-11-05T13:22:49.551Z,4.63
2022-11-05T13:25:28.589Z,4.70
2022-11-05T13:28:13.945Z,4.43
2022-11-05T13:30:44.207Z,4.87
2022-11-05T13:33:15.135Z,4.67
2022-11-05T13:35:44.751Z,4.30
2022-11-05T13:38:43.426Z,3.90
2022-11-05T13:41:50.104Z,4.60
2022-11-05T13:44:54.344Z,4.53
2022-11-05T13:47:39.055Z,4.93
2022-11-05T13:50:30.650Z,4.20
2022-11-05T13:53:19.025Z,4.23
2022-11-05T13:55:51.812Z,4.27
2022-11-05T13:58:52.058Z,4.20
2022-11-05T14:01:24.772Z,4.43
2022-11-05T14:03:53.198Z,4.10
2022-11-05T14:06:28.801Z,3.97
2022-11-05T14:09:01.276Z,3.90
2022-11-05T14:11:35.650Z,4.00
2022-11-05T14:14:05.077Z,12.97
2022-11-05T14:16:48.410Z,5.10
2022-11-05T14:19:17.975Z,3.67
2022-11-05T14:21:55.110Z,4.10
2022-11-05T14:24:21.521Z,3.97
2022-11-05T14:27:00.414Z,3.47
2022-11-05T14:29:44.097Z,3.70
2022-11-05T14:32:19.727Z,4.10
2022-11-05T14:35:16.384Z,3.63
2022-11-05T14:37:53.578Z,3.20
2022-11-05T14:40:32.684Z,3.43
2022-11-05T14:43:02.030Z,3.17
2022-11-05T14:45:36.301Z,2.97
2022-11-05T14:48:05.952Z,2.70
2022-11-05T14:50:37.571Z,3.10
2022-11-05T14:53:27.317Z,3.50
2022-11-05T14:56:01.435Z,3.03
2022-11-05T14:58:40.888Z,2.93
2022-11-05T15:01:13.549Z,3.57
2022-11-05T15:03:45.829Z,2.90
2022-11-05T15:06:34.247Z,5.13
2022-11-05T15:09:05.747Z,4.50
2022-11-05T15:11:42.425Z,2.97
2022-11-05T15:14:19.806Z,3.47
2022-11-05T15:16:52.800Z,3.57
2022-11-05T15:19:48.966Z,3.00
2022-11-05T15:22:27.151Z,3.30
2022-11-05T15:24:53.900Z,3.10
2022-11-05T15:27:40.823Z,3.27
2022-11-05T15:30:15.669Z,3.53
2022-11-05T15:32:42.282Z,3.30
2022-11-05T15:35:29.721Z,3.73
2022-11-05T15:38:02.143Z,3.87
2022-11-05T15:40:33.086Z,5.27
2022-11-05T15:43:09.212Z,4.37
2022-11-05T15:45:36.085Z,3.90
2022-11-05T15:48:02.671Z,3.20
2022-11-05T15:50:29.633Z,3.40
2022-11-05T15:53:04.868Z,2.77
2022-11-05T15:55:48.743Z,3.40
2022-11-05T15:58:15.615Z,3.63
2022-11-05T16:00:46.833Z,3.83
2022-11-05T16:03:16.618Z,3.50
2022-11-05T16:05:45.500Z,4.00
2022-11-05T16:08:17.240Z,4.57
2022-11-05T16:10:47.919Z,3.40
2022-11-05T16:13:36.682Z,4.00
2022-11-05T16:16:06.466Z,3.80
2022-11-05T16:18:38.729Z,3.37
2022-11-05T16:21:12.000Z,3.90
2022-11-05T16:23:59.919Z,4.30
2022-11-05T16:27:00.490Z,3.80
2022-11-05T16:29:19.254Z,3.67
2022-11-05T16:31:53.774Z,4.07
2022-11-05T16:34:41.608Z,7.07
2022-11-05T16:37:13.985Z,4.60
2022-11-05T16:39:40.814Z,3.60
2022-11-05T16:42:22.490Z,3.10
2022-11-05T16:44:54.986Z,3.43
2022-11-05T16:47:22.310Z,3.50
2022-11-05T16:49:49.216Z,3.77
2022-11-05T16:52:16.069Z,3.00
2022-11-05T16:54:44.145Z,3.80
2022-11-05T16:57:30.109Z,3.07
2022-11-05T16:59:58.240Z,3.00
2022-11-05T17:02:25.524Z,3.60
2022-11-05T17:04:52.350Z,3.10
2022-11-05T17:07:18.841Z,3.30
2022-11-05T17:09:45.352Z,2.60
2022-11-05T17:12:12.433Z,3.00
2022-11-05T17:14:39.118Z,2.77
2022-11-05T17:17:06.091Z,3.03
2022-11-05T17:19:32.871Z,3.43
2022-11-05T17:21:59.391Z,2.90
2022-11-05T17:24:25.885Z,2.80
2022-11-05T17:26:52.338Z,3.47
2022-11-05T17:29:18.839Z,3.43
2022-11-05T17:31:45.326Z,3.50
2022-11-05T17:34:11.924Z,3.60
2022-11-05T17:36:38.364Z,3.23
2022-11-05T17:39:04.993Z,3.23
2022-11-05T17:41:31.452Z,3.23
2022-11-05T17:43:58.395Z,3.40
2022-11-05T17:46:25.126Z,3.10
2022-11-05T17:48:51.746Z,2.80
2022-11-05T17:51:19.080Z,7.63
2022-11-05T17:53:47.249Z,3.43
2022-11-05T17:56:24.587Z,2.93
2022-11-05T17:58:55.845Z,2.70
2022-11-05T18:01:28.642Z,2.50
2022-11-05T18:03:55.789Z,2.70
2022-11-05T18:06:22.320Z,2.80
2022-11-05T18:08:49.004Z,2.90
2022-11-05T18:11:15.901Z,3.00
2022-11-05T18:13:42.677Z,3.07
2022-11-05T18:16:09.400Z,2.90
2022-11-05T18:18:36.079Z,2.77
2022-11-05T18:21:02.535Z,2.90
2022-11-05T18:23:29.152Z,3.23
2022-11-05T18:25:55.673Z,2.90
2022-11-05T18:28:22.268Z,2.97
2022-11-05T18:30:48.818Z,2.90
2022-11-05T18:33:15.559Z,3.37
2022-11-05T18:35:43.605Z,3.50
2022-11-05T18:38:10.341Z,3.10
2022-11-05T18:40:36.912Z,3.83
2022-11-05T18:43:03.469Z,3.47
2022-11-05T18:45:31.711Z,3.23
2022-11-05T18:48:00.403Z,3.40
2022-11-05T18:50:27.480Z,3.50
2022-11-05T18:52:54.250Z,3.30
2022-11-05T18:55:21.158Z,3.60
2022-11-05T18:57:47.722Z,3.50
2022-11-05T19:00:14.773Z,3.20
2022-11-05T19:02:41.591Z,3.17
2022-11-05T19:05:28.606Z,3.10
2022-11-05T19:07:54.963Z,3.20
2022-11-05T19:10:21.520Z,3.67
2022-11-05T19:12:48.198Z,3.50
2022-11-05T19:15:14.689Z,2.97
2022-11-05T19:17:41.278Z,3.67
2022-11-05T19:20:09.305Z,3.60
2022-11-05T19:22:35.967Z,3.20
2022-11-05T19:25:02.609Z,3.33
2022-11-05T19:27:29.201Z,3.13
2022-11-05T19:29:55.730Z,3.40
2022-11-05T19:32:22.536Z,3.10
2022-11-05T19:34:49.046Z,3.43
2022-11-05T19:37:15.903Z,3.80
2022-11-05T19:39:43.440Z,3.50
2022-11-05T19:42:09.895Z,3.20
2022-11-05T19:44:36.465Z,3.53
2022-11-05T19:47:03.115Z,3.40
2022-11-05T19:49:29.677Z,3.70
2022-11-05T19:51:56.430Z,3.40
2022-11-05T19:54:23.095Z,3.40
2022-11-05T19:56:50.718Z,3.93
2022-11-05T19:59:17.439Z,4.07
2022-11-05T20:01:44.084Z,3.77
2022-11-05T20:04:12.111Z,5.90
2022-11-05T20:06:40.182Z,4.00
2022-11-05T20:09:25.801Z,4.27
2022-11-05T20:11:56.680Z,4.03
2022-11-05T20:14:24.876Z,4.27
2022-11-05T20:16:51.853Z,4.27
2022-11-05T20:19:21.820Z,4.40
2022-11-05T20:21:49.153Z,4.50
2022-11-05T20:24:22.392Z,4.40
2022-11-05T20:26:50.269Z,4.30
2022-11-05T20:29:16.872Z,4.83
2022-11-05T20:31:43.530Z,4.57
2022-11-05T20:34:10.562Z,4.50
2022-11-05T20:36:37.147Z,4.43
2022-11-05T20:39:03.998Z,4.37
2022-11-05T20:44:16.841Z,4.63
2022-11-05T20:46:43.321Z,5.17
2022-11-05T20:49:09.974Z,4.77
2022-11-05T20:51:36.586Z,4.57
2022-11-05T20:54:03.945Z,5.13
2022-11-05T20:56:32.774Z,4.77
2022-11-05T20:59:00.298Z,4.60
2022-11-05T21:01:29.579Z,4.30
2022-11-05T21:03:56.529Z,4.33
2022-11-05T21:06:23.373Z,4.53
2022-11-05T21:08:51.083Z,4.40
2022-11-05T21:11:18.585Z,4.40
2022-11-05T21:13:45.672Z,5.13
2022-11-05T21:16:17.715Z,4.40
2022-11-05T21:18:45.055Z,4.47
2022-11-05T21:21:16.318Z,4.60
2022-11-05T21:23:43.185Z,4.60
2022-11-05T21:26:13.402Z,4.30
2022-11-05T21:28:40.775Z,4.43
2022-11-05T21:31:08.916Z,4.57
2022-11-05T21:33:35.737Z,4.80
2022-11-05T21:36:08.049Z,5.13
2022-11-05T21:38:34.642Z,4.67
2022-11-05T21:41:02.860Z,4.70
2022-11-05T21:43:29.464Z,4.70
2022-11-05T21:45:56.031Z,4.60
2022-11-05T21:48:22.634Z,4.77
2022-11-05T21:51:11.341Z,4.80
2022-11-05T21:53:57.923Z,4.77
2022-11-05T21:56:44.600Z,5.17
2022-11-05T21:59:32.451Z,5.37
2022-11-05T22:02:02.560Z,4.30
2022-11-05T22:04:33.623Z,4.37
2022-11-05T22:07:00.415Z,5.00
2022-11-05T22:09:27.226Z,4.80
2022-11-05T22:11:54.269Z,4.67
2022-11-05T22:14:21.392Z,5.47
2022-11-05T22:16:47.949Z,5.17
2022-11-05T22:19:14.616Z,4.93
2022-11-05T22:21:41.563Z,5.10
2022-11-05T22:24:08.764Z,4.73
2022-11-05T22:26:36.046Z,5.07
2022-11-05T22:29:02.530Z,4.90
2022-11-05T22:31:34.737Z,5.10
2022-11-05T22:34:03.086Z,4.93
2022-11-05T22:36:29.636Z,4.83
2022-11-05T22:38:56.221Z,5.13
2022-11-05T22:41:22.789Z,4.97
2022-11-05T22:43:49.765Z,5.23
2022-11-05T22:46:20.202Z,5.97
2022-11-05T22:48:47.028Z,4.60
2022-11-05T22:51:15.362Z,5.23
2022-11-05T22:53:42.485Z,5.27
2022-11-05T22:56:11.635Z,4.97
2022-11-05T22:58:38.441Z,5.10
2022-11-05T23:01:07.143Z,5.23
2022-11-05T23:03:34.458Z,4.40
2022-11-05T23:06:04.906Z,5.90
2022-11-05T23:08:50.550Z,5.50
2022-11-05T23:11:38.567Z,4.30
2022-11-05T23:14:07.297Z,5.30
2022-11-05T23:16:52.618Z,4.93
2022-11-05T23:19:38.111Z,4.83
2022-11-05T23:22:24.874Z,4.93
2022-11-05T23:24:51.418Z,4.83
2022-11-05T23:27:17.941Z,5.47
2022-11-05T23:29:44.771Z,4.47
2022-11-05T23:32:27.123Z,4.80
2022-11-05T23:34:56.795Z,4.70
2022-11-05T23:37:44.273Z,5.00
2022-11-05T23:40:15.539Z,4.50
2022-11-05T23:43:01.645Z,5.23
2022-11-05T23:45:47.310Z,5.63
2022-11-05T23:48:18.601Z,4.50
2022-11-05T23:51:06.665Z,4.67
2022-11-05T23:53:35.182Z,5.00
2022-11-05T23:56:13.096Z,5.10
2022-11-05T23:58:40.474Z,4.40
